Time;durP1;ratioP1;P1;durP2;ratioP2;P2;SDS_P1;SDS_P2;PMS_P1;PMS_P2;Temp;Humidity;BMP_temperature;BMP_pressure;BME280_temperature;BME280_humidity;BME280_pressure;Samples;Min_cycle;Max_cycle;Signal;HPM_P1;HPM_P2
2021/11/24 00:00:42;;;;;;;20.08;14.85;;;8.80;99.90;;;;;;5030964;28;20292;-75
2021/11/24 00:03:08;;;;;;;17.55;13.48;;;8.80;99.90;;;;;;5031184;28;20174;-75
2021/11/24 00:05:34;;;;;;;16.25;12.68;;;8.70;99.90;;;;;;5029895;28;20173;-75
2021/11/24 00:07:59;;;;;;;17.57;13.37;;;8.80;99.90;;;;;;5031149;28;20515;-75
2021/11/24 00:10:29;;;;;;;23.13;15.23;;;8.80;99.90;;;;;;5030957;28;20193;-75
2021/11/24 00:12:56;;;;;;;20.08;14.43;;;8.80;99.90;;;;;;5031185;28;20170;-75
2021/11/24 00:15:21;;;;;;;21.02;14.20;;;8.70;99.90;;;;;;5031085;28;20170;-75
2021/11/24 00:17:48;;;;;;;19.47;14.53;;;8.70;99.90;;;;;;5030845;28;20166;-75
2021/11/24 00:20:14;;;;;;;20.75;14.23;;;8.60;99.90;;;;;;5037772;28;20290;-75
2021/11/24 00:22:40;;;;;;;17.80;13.67;;;8.60;99.90;;;;;;5048009;28;20223;-75
2021/11/24 00:25:07;;;;;;;19.57;15.03;;;8.70;99.90;;;;;;5045296;28;20591;-75
2021/11/24 00:27:33;;;;;;;18.10;13.60;;;8.70;99.90;;;;;;5043640;28;20193;-75
2021/11/24 00:29:59;;;;;;;20.75;14.38;;;8.70;99.90;;;;;;5049140;28;20581;-76
2021/11/24 00:32:25;;;;;;;20.90;14.43;;;8.80;99.90;;;;;;5051241;28;20161;-76
2021/11/24 00:34:51;;;;;;;17.40;13.07;;;8.70;99.90;;;;;;5049414;28;20575;-75
2021/11/24 00:37:17;;;;;;;19.13;13.73;;;8.80;99.90;;;;;;5049395;28;20539;-76
2021/11/24 00:39:43;;;;;;;17.40;13.20;;;8.80;99.90;;;;;;5050923;28;20196;-76
2021/11/24 00:42:09;;;;;;;18.53;12.97;;;8.80;99.90;;;;;;5050993;28;21091;-76
2021/11/24 00:44:34;;;;;;;20.50;14.27;;;8.80;99.90;;;;;;5050687;28;20578;-76
2021/11/24 00:47:01;;;;;;;19.50;14.00;;;8.70;99.90;;;;;;5049105;28;20579;-76
2021/11/24 00:49:27;;;;;;;19.27;12.30;;;8.70;99.90;;;;;;5050709;28;21076;-76
2021/11/24 00:51:52;;;;;;;20.27;14.40;;;8.70;99.90;;;;;;5050814;28;20252;-76
2021/11/24 00:54:18;;;;;;;20.10;13.43;;;8.80;99.90;;;;;;5050619;28;20170;-76
2021/11/24 00:56:44;;;;;;;17.23;12.90;;;8.80;99.90;;;;;;5050371;28;20168;-76
2021/11/24 00:59:10;;;;;;;17.43;12.80;;;8.80;99.90;;;;;;5054168;28;20723;-77
2021/11/24 01:01:35;;;;;;;18.87;12.53;;;8.80;99.90;;;;;;5054073;28;20169;-76
2021/11/24 01:04:02;;;;;;;17.37;13.53;;;8.80;99.90;;;;;;5062356;28;20170;-76
2021/11/24 01:06:28;;;;;;;20.00;15.13;;;8.70;99.90;;;;;;5052566;28;20165;-76
2021/11/24 01:08:53;;;;;;;19.07;12.90;;;8.70;99.90;;;;;;5054266;28;20197;-76
2021/11/24 01:11:19;;;;;;;20.13;14.00;;;8.70;99.90;;;;;;5052492;28;20631;-76
2021/11/24 01:13:47;;;;;;;19.20;13.80;;;8.70;99.90;;;;;;5053556;28;20570;-76
2021/11/24 01:16:13;;;;;;;20.52;15.43;;;8.80;99.90;;;;;;5053195;28;20625;-76
2021/11/24 01:18:39;;;;;;;18.83;13.13;;;8.80;99.90;;;;;;5053760;28;20548;-76
2021/11/24 01:21:05;;;;;;;16.43;14.27;;;8.80;99.90;;;;;;5054025;28;20203;-76
2021/11/24 01:23:31;;;;;;;20.80;14.93;;;8.80;99.90;;;;;;5053327;28;20165;-76
2021/11/24 01:25:57;;;;;;;18.67;12.37;;;8.90;99.90;;;;;;5053820;28;20531;-76
2021/11/24 01:28:23;;;;;;;17.70;13.97;;;8.90;99.90;;;;;;5052958;28;20260;-76
2021/11/24 01:30:49;;;;;;;21.80;15.82;;;8.80;99.90;;;;;;5053878;28;20258;-76
2021/11/24 01:33:15;;;;;;;15.40;13.05;;;8.80;99.90;;;;;;5052027;28;20173;-76
2021/11/24 01:35:41;;;;;;;15.80;12.70;;;8.70;99.90;;;;;;5053878;28;20161;-76
2021/11/24 01:38:06;;;;;;;19.50;13.77;;;8.70;99.90;;;;;;5052288;28;20226;-76
2021/11/24 01:40:33;;;;;;;17.50;12.70;;;8.70;99.90;;;;;;5057312;28;20224;-76
2021/11/24 01:42:59;;;;;;;19.70;14.38;;;8.80;99.90;;;;;;5051965;28;20568;-76
2021/11/24 01:45:25;;;;;;;18.83;13.33;;;8.70;99.90;;;;;;5052518;28;20165;-76
2021/11/24 01:47:51;;;;;;;17.65;12.52;;;8.70;99.90;;;;;;5052894;28;20172;-76
2021/11/24 01:50:19;;;;;;;16.27;12.60;;;8.70;99.90;;;;;;5052106;28;20193;-76
2021/11/24 01:52:46;;;;;;;16.80;12.88;;;8.70;99.90;;;;;;5035025;28;20692;-76
2021/11/24 01:55:13;;;;;;;19.17;12.85;;;8.70;99.90;;;;;;5052330;28;20553;-76
2021/11/24 01:57:41;;;;;;;19.25;13.10;;;8.70;99.90;;;;;;5052554;28;20169;-75
2021/11/24 02:00:08;;;;;;;20.00;14.45;;;8.70;99.90;;;;;;5052037;28;20280;-75
2021/11/24 02:02:38;;;;;;;21.50;13.70;;;8.80;99.90;;;;;;5052939;28;20180;-75
2021/11/24 02:05:05;;;;;;;20.98;15.55;;;8.80;99.90;;;;;;5053176;28;20184;-75
2021/11/24 02:07:31;;;;;;;19.00;14.40;;;8.80;99.90;;;;;;5052569;28;20200;-75
2021/11/24 02:09:56;;;;;;;16.08;13.25;;;8.80;99.90;;;;;;5051500;28;20208;-77
2021/11/24 02:12:22;;;;;;;17.47;12.93;;;8.80;99.90;;;;;;5053038;28;20175;-76
2021/11/24 02:14:48;;;;;;;18.63;12.83;;;8.90;99.90;;;;;;5052891;28;20165;-76
2021/11/24 02:17:15;;;;;;;17.07;13.33;;;8.90;99.90;;;;;;5056889;28;20225;-76
2021/11/24 02:19:41;;;;;;;18.25;13.77;;;8.90;99.90;;;;;;5051970;28;20295;-76
2021/11/24 02:22:07;;;;;;;18.77;13.57;;;8.90;99.90;;;;;;5051955;28;20181;-76
2021/11/24 02:24:36;;;;;;;16.13;12.33;;;8.90;99.90;;;;;;5052496;28;20157;-76
2021/11/24 02:27:08;;;;;;;20.95;14.73;;;8.90;99.90;;;;;;5052278;28;20901;-77
2021/11/24 02:29:34;;;;;;;17.52;12.98;;;8.80;99.90;;;;;;5034555;28;20204;-77
2021/11/24 02:32:02;;;;;;;20.05;13.85;;;8.80;99.90;;;;;;5051254;28;20172;-76
2021/11/24 02:34:29;;;;;;;18.42;13.75;;;8.80;99.90;;;;;;5052219;28;20606;-76
2021/11/24 02:36:56;;;;;;;16.70;12.75;;;8.80;99.90;;;;;;5052269;28;20161;-76
2021/11/24 02:39:22;;;;;;;19.63;15.05;;;8.70;99.90;;;;;;5047099;28;20213;-76
2021/11/24 02:41:48;;;;;;;15.77;12.38;;;8.80;99.90;;;;;;5041995;28;20169;-76
2021/11/24 02:44:15;;;;;;;17.93;13.07;;;8.70;99.90;;;;;;5043666;28;20648;-77
2021/11/24 02:46:41;;;;;;;16.20;12.07;;;8.70;99.90;;;;;;5042555;28;20620;-77
2021/11/24 02:49:07;;;;;;;20.60;15.68;;;8.70;99.90;;;;;;5038147;28;20229;-77
2021/11/24 02:51:33;;;;;;;18.40;14.53;;;8.70;99.90;;;;;;5025696;28;20193;-77
2021/11/24 02:53:59;;;;;;;17.70;12.43;;;8.60;99.90;;;;;;5053378;28;20617;-76
2021/11/24 02:56:24;;;;;;;17.10;12.60;;;8.60;99.90;;;;;;5055459;28;20173;-77
2021/11/24 02:58:50;;;;;;;16.63;12.97;;;8.60;99.90;;;;;;5048826;28;20536;-77
2021/11/24 03:01:16;;;;;;;19.03;13.60;;;8.70;99.90;;;;;;5040215;28;20177;-77
2021/11/24 03:03:41;;;;;;;22.30;15.40;;;8.70;99.90;;;;;;5049045;28;20215;-76
2021/11/24 03:06:07;;;;;;;20.00;14.03;;;8.60;99.90;;;;;;5050456;28;20626;-77
2021/11/24 03:08:33;;;;;;;18.90;13.97;;;8.60;99.90;;;;;;5051610;28;20172;-77
2021/11/24 03:10:59;;;;;;;19.13;13.73;;;8.60;99.90;;;;;;5050744;28;20646;-77
2021/11/24 03:13:24;;;;;;;20.90;14.27;;;8.70;99.90;;;;;;5050428;28;20172;-76
2021/11/24 03:15:50;;;;;;;18.47;13.33;;;8.70;99.90;;;;;;5051708;28;20169;-77
2021/11/24 03:18:16;;;;;;;16.47;13.27;;;8.70;99.90;;;;;;5033685;28;20169;-77
2021/11/24 03:20:42;;;;;;;20.10;13.57;;;8.70;99.90;;;;;;5050926;28;20685;-77
2021/11/24 03:23:08;;;;;;;17.75;12.85;;;8.70;99.90;;;;;;5051751;28;20575;-77
2021/11/24 03:25:34;;;;;;;19.97;14.40;;;8.80;99.90;;;;;;5033600;28;20183;-77
2021/11/24 03:28:00;;;;;;;18.92;13.77;;;8.90;99.90;;;;;;5050162;28;20271;-76
2021/11/24 03:30:28;;;;;;;21.30;16.20;;;8.90;99.90;;;;;;5051510;28;20283;-76
2021/11/24 03:32:56;;;;;;;20.63;14.32;;;8.90;99.90;;;;;;5055725;28;20560;-77
2021/11/24 03:35:23;;;;;;;17.77;14.00;;;9.00;99.90;;;;;;5051767;28;20719;-76
2021/11/24 03:37:51;;;;;;;21.67;14.55;;;9.00;99.90;;;;;;5051313;28;20579;-77
2021/11/24 03:40:20;;;;;;;19.67;12.88;;;9.00;99.90;;;;;;5051661;28;20657;-77
2021/11/24 03:42:47;;;;;;;17.92;13.43;;;8.90;99.90;;;;;;5049951;28;20203;-77
2021/11/24 03:45:18;;;;;;;17.67;13.98;;;8.90;99.90;;;;;;5051496;28;20556;-77
2021/11/24 03:47:45;;;;;;;21.05;14.13;;;9.00;99.90;;;;;;5049740;28;20177;-77
2021/11/24 03:50:12;;;;;;;19.10;13.52;;;9.00;99.90;;;;;;5051313;28;20222;-77
2021/11/24 03:52:38;;;;;;;22.13;13.75;;;9.00;99.90;;;;;;5051255;28;20171;-77
2021/11/24 03:55:06;;;;;;;23.90;14.35;;;9.00;99.90;;;;;;5051869;28;20172;-77
2021/11/24 03:57:32;;;;;;;20.58;13.75;;;9.00;99.90;;;;;;5051249;28;20633;-77
2021/11/24 03:59:58;;;;;;;18.90;13.90;;;9.00;99.90;;;;;;5051784;28;20203;-77
2021/11/24 04:02:24;;;;;;;21.23;14.20;;;9.00;99.90;;;;;;5051053;28;20580;-77
2021/11/24 04:04:50;;;;;;;19.43;12.70;;;9.00;99.90;;;;;;5051364;28;20177;-77
2021/11/24 04:07:16;;;;;;;22.33;15.10;;;9.10;99.90;;;;;;5050958;28;20612;-77
2021/11/24 04:09:42;;;;;;;21.10;15.47;;;9.10;99.90;;;;;;5051558;28;21108;-77
2021/11/24 04:12:08;;;;;;;17.20;12.27;;;9.10;99.90;;;;;;5051279;28;21188;-77
2021/11/24 04:14:34;;;;;;;22.17;15.27;;;9.10;99.90;;;;;;5051428;28;20568;-78
2021/11/24 04:16:59;;;;;;;19.67;14.53;;;9.10;99.90;;;;;;5050913;28;20166;-77
2021/11/24 04:19:25;;;;;;;19.47;14.80;;;9.00;99.90;;;;;;5050818;28;20668;-77
2021/11/24 04:21:51;;;;;;;21.57;15.33;;;9.00;99.90;;;;;;5050998;28;20197;-77
2021/11/24 04:24:18;;;;;;;21.30;15.57;;;9.00;99.90;;;;;;5050879;28;20567;-77
2021/11/24 04:26:44;;;;;;;17.90;13.65;;;9.10;99.90;;;;;;5050731;28;20252;-77
2021/11/24 04:29:10;;;;;;;19.30;14.27;;;9.10;99.90;;;;;;5050980;28;20296;-77
2021/11/24 04:31:36;;;;;;;23.47;15.37;;;9.10;99.90;;;;;;5051296;28;20635;-77
2021/11/24 04:34:02;;;;;;;22.10;14.97;;;9.20;99.90;;;;;;5053120;28;20645;-77
2021/11/24 04:36:28;;;;;;;18.95;14.48;;;9.20;99.90;;;;;;5054568;28;20165;-77
2021/11/24 04:38:53;;;;;;;23.10;16.13;;;9.20;99.90;;;;;;5054697;28;20272;-77
2021/11/24 04:41:19;;;;;;;20.37;16.37;;;9.10;99.90;;;;;;5054877;28;20903;-77
2021/11/24 04:43:51;;;;;;;23.53;14.90;;;9.10;99.90;;;;;;5053289;28;20165;-77
2021/11/24 04:46:17;;;;;;;22.35;14.73;;;9.00;99.90;;;;;;5059763;28;20603;-77
2021/11/24 04:48:43;;;;;;;20.60;14.15;;;9.00;99.90;;;;;;5054386;28;20270;-77
2021/11/24 04:51:09;;;;;;;19.43;13.67;;;9.00;99.90;;;;;;5053409;28;20687;-78
2021/11/24 04:53:35;;;;;;;22.52;16.92;;;9.00;99.90;;;;;;5052928;28;20614;-77
2021/11/24 04:56:02;;;;;;;22.05;14.80;;;9.00;99.90;;;;;;5053613;28;20173;-77
2021/11/24 04:58:28;;;;;;;21.60;15.93;;;9.00;99.90;;;;;;5053762;28;20169;-77
2021/11/24 05:00:54;;;;;;;20.73;14.63;;;9.00;99.90;;;;;;5054476;28;20543;-77
2021/11/24 05:03:20;;;;;;;20.23;14.68;;;9.00;99.90;;;;;;5053777;28;20702;-77
2021/11/24 05:05:46;;;;;;;20.92;16.23;;;9.00;99.90;;;;;;5053237;28;20573;-77
2021/11/24 05:08:11;;;;;;;21.30;15.50;;;8.90;99.90;;;;;;5052742;28;20235;-77
2021/11/24 05:10:37;;;;;;;20.63;14.90;;;8.90;99.90;;;;;;5054126;28;20972;-77
2021/11/24 05:13:07;;;;;;;21.90;14.40;;;8.80;99.90;;;;;;5054165;28;20248;-77
2021/11/24 05:15:35;;;;;;;23.20;15.73;;;8.80;99.90;;;;;;5052852;28;20658;-77
2021/11/24 05:18:04;;;;;;;22.77;16.67;;;8.80;99.90;;;;;;5052414;28;20169;-77
2021/11/24 05:20:31;;;;;;;22.30;15.45;;;8.90;99.90;;;;;;5054033;28;20216;-77
2021/11/24 05:23:01;;;;;;;21.55;14.70;;;8.90;99.90;;;;;;5058638;28;20173;-77
2021/11/24 05:25:28;;;;;;;17.25;13.50;;;8.90;99.90;;;;;;5054767;28;20600;-77
2021/11/24 05:27:54;;;;;;;20.88;15.98;;;8.90;99.90;;;;;;5053846;28;20175;-77
2021/11/24 05:30:21;;;;;;;20.58;14.35;;;8.90;99.90;;;;;;5053976;28;20244;-77
2021/11/24 05:32:47;;;;;;;17.75;13.60;;;9.00;99.90;;;;;;5053929;28;20260;-77
2021/11/24 05:35:13;;;;;;;18.48;13.88;;;9.00;99.90;;;;;;5053350;28;20191;-77
2021/11/24 05:37:39;;;;;;;19.50;12.73;;;9.00;99.90;;;;;;5068942;28;20193;-76
2021/11/24 05:40:05;;;;;;;21.93;14.03;;;9.00;99.90;;;;;;5069436;28;20604;-76
2021/11/24 05:42:31;;;;;;;21.23;14.20;;;9.00;99.90;;;;;;5071384;28;20582;-77
2021/11/24 05:45:12;;;;;;;23.93;14.20;;;9.00;99.90;;;;;;5070388;28;20216;-77
2021/11/24 05:47:54;;;;;;;17.08;12.90;;;9.00;99.90;;;;;;5068791;28;20185;-76
2021/11/24 05:50:21;;;;;;;16.73;13.48;;;9.00;99.90;;;;;;5065011;28;20200;-77
2021/11/24 05:52:48;;;;;;;17.90;12.95;;;9.10;99.90;;;;;;5054000;28;20168;-76
2021/11/24 05:55:15;;;;;;;18.77;13.55;;;9.00;99.90;;;;;;5052562;28;20175;-76
2021/11/24 05:57:44;;;;;;;18.40;13.50;;;9.00;99.90;;;;;;5052145;28;20180;-77
2021/11/24 06:00:10;;;;;;;18.80;12.75;;;9.00;99.90;;;;;;5054967;28;20234;-77
2021/11/24 06:02:39;;;;;;;23.88;12.35;;;9.10;99.90;;;;;;5052361;28;20180;-76
2021/11/24 06:05:05;;;;;;;16.13;11.90;;;9.00;99.90;;;;;;5035532;28;20173;-76
2021/11/24 06:07:31;;;;;;;18.80;14.02;;;9.00;99.90;;;;;;5051545;28;20599;-76
2021/11/24 06:09:57;;;;;;;18.60;12.23;;;9.00;99.90;;;;;;5053176;28;20235;-76
2021/11/24 06:12:23;;;;;;;17.73;13.60;;;9.00;99.90;;;;;;5052887;28;20585;-76
2021/11/24 06:14:49;;;;;;;21.13;13.37;;;9.10;99.90;;;;;;5051713;28;20169;-76
2021/11/24 06:17:15;;;;;;;18.10;12.90;;;9.10;99.90;;;;;;5051155;28;20167;-76
2021/11/24 06:19:40;;;;;;;19.40;13.40;;;9.10;99.90;;;;;;5051752;28;20626;-77
2021/11/24 06:22:09;;;;;;;20.10;13.20;;;9.20;99.90;;;;;;5018577;28;20180;-77
2021/11/24 06:24:35;;;;;;;21.55;13.60;;;9.10;99.90;;;;;;5051760;28;20177;-77
2021/11/24 06:27:00;;;;;;;18.10;11.70;;;9.20;99.90;;;;;;5052064;28;20223;-77
2021/11/24 06:29:27;;;;;;;17.20;11.93;;;9.20;99.90;;;;;;5052496;28;20268;-77
2021/11/24 06:31:52;;;;;;;17.25;12.95;;;9.20;99.90;;;;;;5051266;28;20576;-76
2021/11/24 06:34:19;;;;;;;16.30;11.97;;;9.20;99.90;;;;;;5053795;28;20228;-77
2021/11/24 06:36:45;;;;;;;15.48;10.38;;;9.20;99.90;;;;;;5034787;28;20185;-77
2021/11/24 06:39:11;;;;;;;17.33;11.00;;;9.30;99.90;;;;;;5055725;28;20315;-77
2021/11/24 06:41:37;;;;;;;15.23;11.93;;;9.30;99.90;;;;;;5051123;28;20808;-77
2021/11/24 06:44:03;;;;;;;16.40;10.57;;;9.30;99.90;;;;;;5052189;28;20200;-77
2021/11/24 06:46:29;;;;;;;15.03;11.17;;;9.30;99.90;;;;;;5050598;28;20648;-77
2021/11/24 06:48:55;;;;;;;14.17;10.30;;;9.30;99.90;;;;;;5052232;28;20610;-77
2021/11/24 06:51:20;;;;;;;14.80;11.30;;;9.30;99.90;;;;;;5052731;28;20228;-77
2021/11/24 06:53:46;;;;;;;16.53;11.37;;;9.20;99.90;;;;;;5051710;28;20165;-77
2021/11/24 06:56:13;;;;;;;16.33;11.00;;;9.20;99.90;;;;;;5049752;28;20203;-77
2021/11/24 06:58:39;;;;;;;15.83;11.23;;;9.20;99.90;;;;;;5051744;28;20676;-77
2021/11/24 07:01:05;;;;;;;15.87;10.03;;;9.20;99.90;;;;;;5052193;28;20184;-77
2021/11/24 07:03:30;;;;;;;14.03;10.93;;;9.20;99.90;;;;;;5051721;28;20168;-77
2021/11/24 07:05:56;;;;;;;16.17;10.90;;;9.30;99.90;;;;;;5050872;28;20227;-76
2021/11/24 07:08:22;;;;;;;13.63;10.17;;;9.20;99.90;;;;;;5050012;28;20232;-76
2021/11/24 07:10:48;;;;;;;11.57;9.30;;;9.20;99.90;;;;;;5052032;28;20626;-76
2021/11/24 07:13:14;;;;;;;11.75;9.10;;;9.30;99.90;;;;;;5051488;28;20586;-76
2021/11/24 07:15:41;;;;;;;11.45;9.27;;;9.30;99.90;;;;;;5056085;28;20169;-77
2021/11/24 07:18:07;;;;;;;12.13;8.63;;;9.30;99.90;;;;;;5049857;28;20169;-77
2021/11/24 07:20:33;;;;;;;11.07;9.07;;;9.20;99.90;;;;;;5051704;28;20617;-78
2021/11/24 07:23:02;;;;;;;10.50;8.20;;;9.30;99.90;;;;;;5051374;28;20563;-78
2021/11/24 07:25:29;;;;;;;12.60;9.60;;;9.20;99.90;;;;;;5052101;28;20273;-78
2021/11/24 07:27:55;;;;;;;12.27;9.07;;;9.30;99.90;;;;;;5053060;28;20157;-78
2021/11/24 07:30:22;;;;;;;14.75;11.10;;;9.20;99.90;;;;;;5057341;28;20631;-77
2021/11/24 07:32:48;;;;;;;13.60;10.23;;;9.20;99.90;;;;;;5035534;28;20177;-77
2021/11/24 07:35:14;;;;;;;11.33;9.30;;;9.10;99.90;;;;;;5050666;28;20937;-78
2021/11/24 07:37:40;;;;;;;13.70;9.83;;;9.20;99.90;;;;;;5050010;28;20574;-77
2021/11/24 07:40:11;;;;;;;11.27;8.70;;;9.20;99.90;;;;;;5050179;28;20607;-77
2021/11/24 07:42:37;;;;;;;13.73;10.52;;;9.20;99.90;;;;;;5050691;28;20169;-77
2021/11/24 07:45:04;;;;;;;10.32;8.50;;;9.20;99.90;;;;;;5051672;28;20653;-77
2021/11/24 07:47:30;;;;;;;12.23;9.90;;;9.20;99.90;;;;;;5033605;28;20192;-77
2021/11/24 07:49:56;;;;;;;13.60;9.83;;;9.20;99.90;;;;;;5060390;28;20227;-76
2021/11/24 07:52:23;;;;;;;14.33;9.70;;;9.20;99.90;;;;;;5050082;28;20575;-77
2021/11/24 07:54:49;;;;;;;15.30;10.90;;;9.20;99.90;;;;;;5050880;28;20582;-76
2021/11/24 07:57:17;;;;;;;18.42;11.00;;;9.30;99.90;;;;;;5049519;28;20238;-76
2021/11/24 07:59:46;;;;;;;16.83;9.45;;;9.30;99.90;;;;;;5049768;28;20189;-77
2021/11/24 08:02:12;;;;;;;12.32;10.13;;;9.30;99.90;;;;;;5051140;28;20161;-77
2021/11/24 08:04:38;;;;;;;14.97;10.10;;;9.40;99.90;;;;;;5050758;28;20593;-77
2021/11/24 08:07:07;;;;;;;15.02;9.52;;;9.40;99.90;;;;;;5053664;28;20195;-77
2021/11/24 08:09:34;;;;;;;15.13;11.40;;;9.40;99.90;;;;;;5054863;28;20227;-76
2021/11/24 08:12:00;;;;;;;13.00;9.50;;;9.40;99.90;;;;;;5053910;28;20563;-77
2021/11/24 08:14:26;;;;;;;12.32;9.68;;;9.40;99.90;;;;;;5054854;28;20165;-76
2021/11/24 08:16:55;;;;;;;14.93;10.05;;;9.40;99.90;;;;;;5051187;28;20178;-77
2021/11/24 08:19:24;;;;;;;16.48;9.60;;;9.50;99.90;;;;;;5036918;28;20236;-80
2021/11/24 08:21:50;;;;;;;12.60;9.50;;;9.50;99.90;;;;;;5055232;28;20173;-80
2021/11/24 08:24:16;;;;;;;15.03;10.73;;;9.50;99.90;;;;;;5054966;28;20236;-80
2021/11/24 08:26:42;;;;;;;13.90;11.30;;;9.60;99.90;;;;;;5054423;28;20173;-80
2021/11/24 08:29:08;;;;;;;13.95;11.13;;;9.60;99.90;;;;;;5055141;28;20681;-80
2021/11/24 08:31:36;;;;;;;15.18;12.15;;;9.60;99.90;;;;;;5054909;28;20193;-80
2021/11/24 08:34:03;;;;;;;13.80;10.68;;;9.60;99.90;;;;;;5036808;28;20173;-80
2021/11/24 08:36:30;;;;;;;15.20;10.65;;;9.60;99.90;;;;;;5054376;28;20161;-80
2021/11/24 08:38:56;;;;;;;13.27;9.65;;;9.60;99.90;;;;;;5020850;28;20185;-80
2021/11/24 08:41:22;;;;;;;17.17;11.75;;;9.70;99.90;;;;;;5054498;28;20173;-80
2021/11/24 08:43:48;;;;;;;17.20;11.20;;;9.70;99.90;;;;;;5053589;28;20191;-80
2021/11/24 08:46:14;;;;;;;17.30;11.77;;;9.70;99.90;;;;;;5054475;28;20200;-80
2021/11/24 08:48:40;;;;;;;13.40;10.90;;;9.70;99.90;;;;;;5053421;28;20201;-80
2021/11/24 08:51:06;;;;;;;12.68;10.50;;;9.70;99.90;;;;;;5053435;28;20617;-80
2021/11/24 08:53:32;;;;;;;13.50;9.77;;;9.80;99.90;;;;;;5052551;28;20169;-80
2021/11/24 08:55:58;;;;;;;14.63;10.93;;;9.80;99.90;;;;;;5042073;28;20586;-80
2021/11/24 08:58:24;;;;;;;16.10;11.07;;;9.90;99.90;;;;;;5054200;28;21168;-80
2021/11/24 09:00:50;;;;;;;14.57;10.80;;;9.90;99.90;;;;;;5054473;28;20567;-80
2021/11/24 09:03:17;;;;;;;15.55;11.40;;;9.90;99.90;;;;;;5054288;28;20605;-80
2021/11/24 09:05:43;;;;;;;16.20;10.85;;;9.90;99.90;;;;;;5054517;28;20161;-80
2021/11/24 09:08:09;;;;;;;11.70;8.80;;;10.00;99.90;;;;;;5053569;28;20173;-79
2021/11/24 09:10:36;;;;;;;14.13;10.97;;;10.00;99.90;;;;;;5053087;28;21193;-79
2021/11/24 09:13:02;;;;;;;16.00;11.38;;;10.10;99.90;;;;;;5052522;28;20180;-79
2021/11/24 09:15:28;;;;;;;12.63;10.30;;;10.10;99.90;;;;;;5046311;28;20212;-79
2021/11/24 09:17:54;;;;;;;16.10;12.10;;;10.20;99.90;;;;;;5044363;28;20207;-79
2021/11/24 09:20:20;;;;;;;16.83;12.20;;;10.20;99.90;;;;;;5050053;28;20619;-79
2021/11/24 09:22:48;;;;;;;15.82;11.77;;;10.20;99.90;;;;;;5044321;28;20584;-80
2021/11/24 09:25:18;;;;;;;15.80;11.38;;;10.20;99.90;;;;;;5059087;28;20173;-78
2021/11/24 09:28:05;;;;;;;13.35;10.52;;;10.20;99.90;;;;;;5056932;28;20230;-78
2021/11/24 09:30:31;;;;;;;14.25;11.32;;;10.20;99.90;;;;;;5056419;28;20197;-79
2021/11/24 09:32:57;;;;;;;15.50;10.77;;;10.20;99.90;;;;;;5056818;28;20701;-80
2021/11/24 09:35:23;;;;;;;14.50;10.10;;;10.20;99.90;;;;;;5054024;28;20563;-79
2021/11/24 09:37:49;;;;;;;14.20;9.80;;;10.20;99.90;;;;;;5051865;28;20567;-79
2021/11/24 09:40:15;;;;;;;15.25;12.00;;;10.20;99.90;;;;;;5049540;28;20193;-79
2021/11/24 09:42:44;;;;;;;15.60;11.20;;;10.20;99.90;;;;;;5043325;28;20184;-80
2021/11/24 09:45:12;;;;;;;14.50;9.98;;;10.20;99.90;;;;;;5050956;28;20243;-80
2021/11/24 09:47:45;;;;;;;12.75;9.98;;;10.30;99.90;;;;;;5046674;28;20671;-80
2021/11/24 09:50:12;;;;;;;13.52;10.90;;;10.40;99.90;;;;;;5041621;28;20253;-80
2021/11/24 09:52:38;;;;;;;13.80;10.38;;;10.40;99.90;;;;;;5049835;28;20208;-80
2021/11/24 09:55:05;;;;;;;15.35;11.50;;;10.40;99.90;;;;;;5043546;28;20177;-80
2021/11/24 09:57:31;;;;;;;13.00;10.20;;;10.40;99.90;;;;;;5044948;28;20511;-79
2021/11/24 09:59:57;;;;;;;16.33;12.25;;;10.40;99.90;;;;;;5047888;28;20262;-80
2021/11/24 10:02:23;;;;;;;14.50;10.23;;;10.50;99.90;;;;;;5041604;28;20233;-80
2021/11/24 10:04:50;;;;;;;12.82;9.70;;;10.40;99.90;;;;;;5052300;28;20670;-80
2021/11/24 10:07:19;;;;;;;14.15;10.10;;;10.50;99.90;;;;;;5051826;28;20207;-80
2021/11/24 10:09:46;;;;;;;13.98;9.60;;;10.50;99.90;;;;;;5056838;28;20255;-79
2021/11/24 10:12:12;;;;;;;12.05;9.05;;;10.50;99.90;;;;;;5053036;28;20215;-79
2021/11/24 10:14:41;;;;;;;10.88;8.75;;;10.50;99.90;;;;;;5052830;28;20192;-80
2021/11/24 10:17:11;;;;;;;15.98;9.60;;;10.50;99.90;;;;;;5052873;28;20165;-80
2021/11/24 10:19:37;;;;;;;14.25;9.25;;;10.50;99.90;;;;;;5052624;28;20260;-80
2021/11/24 10:22:06;;;;;;;11.57;9.30;;;10.40;99.90;;;;;;5051720;28;20161;-80
2021/11/24 10:24:35;;;;;;;11.93;9.75;;;10.40;99.90;;;;;;5052717;28;20165;-80
2021/11/24 10:27:04;;;;;;;14.30;10.45;;;10.40;99.90;;;;;;5051260;28;20160;-79
2021/11/24 10:29:29;;;;;;;12.02;8.48;;;10.40;99.90;;;;;;5051616;28;20665;-79
2021/11/24 10:32:01;;;;;;;13.40;10.00;;;10.50;99.90;;;;;;5053101;28;20256;-79
2021/11/24 10:34:34;;;;;;;17.02;10.25;;;10.60;99.90;;;;;;5052250;28;20169;-80
2021/11/24 10:37:10;;;;;;;12.45;9.02;;;10.50;99.90;;;;;;5052427;28;20216;-80
2021/11/24 10:39:47;;;;;;;13.55;10.65;;;10.60;99.90;;;;;;5051360;28;20228;-80
2021/11/24 10:42:39;;;;;;;13.38;9.30;;;10.60;99.90;;;;;;5052997;28;20173;-80
2021/11/24 10:45:14;;;;;;;9.75;7.72;;;10.70;99.90;;;;;;5030833;28;20283;-80
2021/11/24 10:47:56;;;;;;;10.07;7.80;;;10.90;99.90;;;;;;5057905;28;20160;-79
2021/11/24 10:50:30;;;;;;;13.20;8.10;;;11.00;99.90;;;;;;5052426;28;20609;-80
2021/11/24 10:52:56;;;;;;;12.20;8.60;;;11.10;99.90;;;;;;5052378;28;20164;-80
2021/11/24 10:55:28;;;;;;;10.27;8.20;;;11.20;99.90;;;;;;5052148;28;20219;-80
2021/11/24 10:58:16;;;;;;;9.75;7.50;;;11.30;99.90;;;;;;5052023;28;20555;-79
2021/11/24 11:01:02;;;;;;;10.60;8.07;;;11.30;99.90;;;;;;5050747;28;20670;-80
2021/11/24 11:03:44;;;;;;;9.73;8.50;;;11.30;99.90;;;;;;5050121;28;20181;-79
2021/11/24 11:06:27;;;;;;;10.38;7.50;;;11.40;99.90;;;;;;5052252;28;20234;-80
2021/11/24 11:08:57;;;;;;;13.07;9.55;;;11.40;99.90;;;;;;5050902;28;20590;-80
2021/11/24 11:11:31;;;;;;;12.68;8.52;;;11.30;99.90;;;;;;5051110;28;20266;-80
2021/11/24 11:14:19;;;;;;;12.95;8.35;;;11.30;99.90;;;;;;5051185;28;20647;-80
2021/11/24 11:16:47;;;;;;;9.73;8.13;;;11.20;99.90;;;;;;5052505;28;20506;-80
2021/11/24 11:19:42;;;;;;;14.20;10.10;;;11.20;99.90;;;;;;5051423;28;20296;-80
2021/11/24 11:22:09;;;;;;;10.90;7.55;;;11.10;99.90;;;;;;5051168;28;20519;-79
2021/11/24 11:24:35;;;;;;;12.77;10.43;;;11.20;99.90;;;;;;5056076;28;20250;-80
2021/11/24 11:27:02;;;;;;;13.80;9.63;;;11.20;99.90;;;;;;5050799;28;20171;-80
2021/11/24 11:29:28;;;;;;;12.35;8.70;;;11.20;99.90;;;;;;5050966;28;20264;-79
2021/11/24 11:31:55;;;;;;;8.95;7.82;;;11.10;99.90;;;;;;5051891;28;20161;-79
2021/11/24 11:34:21;;;;;;;11.20;7.65;;;11.10;99.90;;;;;;5052000;28;20738;-79
2021/11/24 11:36:48;;;;;;;9.45;6.90;;;11.00;99.90;;;;;;5051168;28;20169;-79
2021/11/24 11:39:15;;;;;;;9.10;6.25;;;11.10;99.90;;;;;;5050865;28;20582;-79
2021/11/24 11:41:42;;;;;;;7.78;5.47;;;11.10;99.90;;;;;;5050168;28;20169;-79
2021/11/24 11:44:14;;;;;;;8.52;6.35;;;11.10;99.90;;;;;;5033801;28;20277;-79
2021/11/24 11:46:44;;;;;;;8.27;5.50;;;11.20;99.90;;;;;;5033290;28;20169;-79
2021/11/24 11:49:16;;;;;;;13.30;5.63;;;11.30;99.90;;;;;;5050942;28;20579;-80
2021/11/24 11:51:45;;;;;;;8.18;5.55;;;11.40;99.90;;;;;;5052716;28;20282;-79
2021/11/24 11:54:21;;;;;;;6.47;5.28;;;11.40;99.90;;;;;;5052707;28;20169;-80
2021/11/24 11:56:47;;;;;;;4.85;4.00;;;11.30;99.90;;;;;;5051446;28;20215;-79
2021/11/24 11:59:24;;;;;;;10.70;4.40;;;11.30;99.90;;;;;;5036818;28;20193;-79
2021/11/24 12:01:50;;;;;;;7.15;5.00;;;11.30;99.90;;;;;;5071630;28;20198;-79
2021/11/24 12:04:27;;;;;;;6.50;3.33;;;11.20;99.90;;;;;;5072025;28;20196;-80
2021/11/24 12:06:53;;;;;;;4.10;2.83;;;11.30;99.90;;;;;;5071129;28;20187;-78
2021/11/24 12:09:22;;;;;;;3.50;2.03;;;11.20;99.90;;;;;;5052328;28;20200;-79
2021/11/24 12:12:09;;;;;;;4.88;2.60;;;11.20;99.90;;;;;;5068938;28;20568;-81
2021/11/24 12:14:50;;;;;;;2.97;1.85;;;11.10;99.90;;;;;;5063132;28;20161;-80
2021/11/24 12:17:29;;;;;;;3.30;2.90;;;11.10;99.90;;;;;;5062365;28;20244;-79
2021/11/24 12:20:13;;;;;;;3.35;1.75;;;11.00;99.90;;;;;;5055833;28;20234;-80
2021/11/24 12:22:54;;;;;;;3.00;1.48;;;11.00;99.90;;;;;;5055650;28;20175;-79
2021/11/24 12:25:24;;;;;;;1.95;1.27;;;11.00;99.90;;;;;;5051371;28;20165;-79
2021/11/24 12:27:53;;;;;;;2.70;1.23;;;11.00;99.90;;;;;;5051396;28;20173;-79
2021/11/24 12:30:40;;;;;;;2.80;1.10;;;11.00;99.90;;;;;;5050889;28;20201;-80
2021/11/24 12:33:27;;;;;;;1.80;1.20;;;11.00;99.90;;;;;;5052312;28;20173;-79
2021/11/24 12:35:56;;;;;;;2.33;1.00;;;11.00;99.90;;;;;;5053757;28;20173;-80
2021/11/24 12:38:27;;;;;;;2.92;1.00;;;11.00;99.90;;;;;;5054449;28;20659;-79
2021/11/24 12:40:57;;;;;;;1.67;1.00;;;10.90;99.90;;;;;;5052986;28;20173;-80